createdAt,value
2017-12-08T00:00:15.279Z,43.52
2017-12-08T00:02:41.052Z,43.43
2017-12-08T00:05:06.826Z,43.49
2017-12-08T00:07:33.588Z,43.47
2017-12-08T00:09:59.411Z,43.40
2017-12-08T00:12:25.991Z,43.32
2017-12-08T00:14:51.759Z,43.67
2017-12-08T00:17:18.543Z,43.41
2017-12-08T00:19:45.200Z,43.69
2017-12-08T00:22:11.988Z,43.68
2017-12-08T00:24:37.761Z,43.61
2017-12-08T00:27:03.523Z,43.72
2017-12-08T00:29:29.292Z,43.51
2017-12-08T00:31:55.060Z,43.40
2017-12-08T00:34:21.828Z,43.52
2017-12-08T00:36:48.568Z,43.64
2017-12-08T00:39:15.347Z,43.87
2017-12-08T00:41:41.111Z,44.01
2017-12-08T00:44:07.674Z,44.02
2017-12-08T00:46:34.351Z,44.18
2017-12-08T00:49:01.153Z,44.40
2017-12-08T00:51:27.909Z,44.02
2017-12-08T00:53:53.670Z,44.12
2017-12-08T00:56:20.430Z,44.20
2017-12-08T00:58:47.107Z,44.18
2017-12-08T01:01:13.871Z,44.10
2017-12-08T01:03:39.654Z,44.21
2017-12-08T01:06:06.389Z,44.32
2017-12-08T01:08:32.165Z,44.22
2017-12-08T01:10:57.970Z,44.44
2017-12-08T01:13:23.743Z,44.30
2017-12-08T01:15:49.512Z,44.58
2017-12-08T01:18:16.192Z,44.36
2017-12-08T01:20:41.995Z,44.42
2017-12-08T01:23:07.807Z,44.24
2017-12-08T01:25:33.583Z,44.48
2017-12-08T01:27:59.343Z,44.36
2017-12-08T01:30:25.114Z,44.90
2017-12-08T01:32:50.875Z,44.51
2017-12-08T01:35:16.647Z,44.57
2017-12-08T01:37:42.459Z,44.52
2017-12-08T01:40:08.287Z,44.57
2017-12-08T01:42:34.059Z,44.65
2017-12-08T01:44:59.962Z,44.56
2017-12-08T01:47:25.739Z,44.46
2017-12-08T01:49:51.499Z,44.66
2017-12-08T01:52:18.043Z,44.56
2017-12-08T01:54:43.851Z,44.80
2017-12-08T01:57:09.632Z,44.78
2017-12-08T01:59:35.399Z,44.63
2017-12-08T02:02:02.013Z,44.69
2017-12-08T02:04:27.783Z,44.80
2017-12-08T02:06:53.587Z,44.95
2017-12-08T02:09:19.366Z,45.04
2017-12-08T02:11:45.168Z,44.82
2017-12-08T02:14:10.943Z,44.83
2017-12-08T02:16:36.714Z,44.66
2017-12-08T02:19:02.483Z,44.90
2017-12-08T02:21:28.255Z,44.79
2017-12-08T02:23:54.028Z,45.07
2017-12-08T02:26:19.788Z,44.95
2017-12-08T02:28:45.564Z,45.00
2017-12-08T02:31:11.344Z,45.03
2017-12-08T02:33:37.123Z,44.92
2017-12-08T02:36:02.895Z,44.96
2017-12-08T02:38:29.622Z,44.90
2017-12-08T02:40:55.391Z,45.02
2017-12-08T02:43:22.127Z,44.79
2017-12-08T02:45:47.888Z,44.83
2017-12-08T02:48:14.748Z,44.71
2017-12-08T02:50:40.527Z,44.95
2017-12-08T02:53:07.280Z,44.80
2017-12-08T02:55:34.023Z,44.91
2017-12-08T02:58:00.739Z,45.01
2017-12-08T03:00:27.483Z,45.01
2017-12-08T03:02:53.259Z,45.19
2017-12-08T03:05:19.074Z,44.96
2017-12-08T03:07:45.779Z,45.25
2017-12-08T03:10:12.523Z,44.77
2017-12-08T03:12:39.240Z,45.04
2017-12-08T03:15:05.148Z,45.19
2017-12-08T03:17:31.907Z,44.88
2017-12-08T03:19:57.671Z,44.98
2017-12-08T03:22:24.407Z,44.85
2017-12-08T03:24:51.200Z,45.10
2017-12-08T03:27:16.989Z,45.19
2017-12-08T03:29:42.768Z,45.08
2017-12-08T03:32:08.608Z,44.91
2017-12-08T03:34:34.447Z,45.03
2017-12-08T03:37:00.213Z,44.85
2017-12-08T03:39:25.991Z,44.76
2017-12-08T03:41:51.771Z,44.97
2017-12-08T03:44:17.563Z,44.87
2017-12-08T03:46:44.304Z,44.68
2017-12-08T03:49:11.159Z,44.81
2017-12-08T03:51:36.927Z,44.97
2017-12-08T03:54:02.689Z,45.06
2017-12-08T03:56:28.460Z,45.00
2017-12-08T03:58:55.074Z,44.94
2017-12-08T04:01:20.836Z,44.85
2017-12-08T04:03:46.615Z,45.00
2017-12-08T04:06:12.375Z,45.02
2017-12-08T04:08:39.112Z,44.83
2017-12-08T04:11:04.915Z,44.78
2017-12-08T04:13:30.734Z,44.80
2017-12-08T04:15:56.531Z,45.16
2017-12-08T04:18:23.252Z,44.84
2017-12-08T04:20:49.015Z,44.71
2017-12-08T04:23:15.769Z,44.93
2017-12-08T04:25:41.531Z,44.98
2017-12-08T04:28:08.155Z,45.09
2017-12-08T04:30:34.892Z,44.85
2017-12-08T04:33:00.664Z,44.99
2017-12-08T04:35:27.375Z,44.77
2017-12-08T04:37:53.140Z,44.81
2017-12-08T04:40:19.875Z,44.64
2017-12-08T04:42:45.679Z,44.88
2017-12-08T04:45:12.438Z,44.97
2017-12-08T04:47:39.194Z,44.95
2017-12-08T04:50:05.986Z,44.84
2017-12-08T04:52:31.757Z,45.02
2017-12-08T04:54:57.523Z,44.87
2017-12-08T04:57:23.299Z,44.81
2017-12-08T04:59:49.151Z,44.73
2017-12-08T05:02:15.735Z,44.85
2017-12-08T05:04:42.475Z,44.95
2017-12-08T05:07:08.279Z,44.75
2017-12-08T05:09:34.047Z,44.76
2017-12-08T05:12:00.752Z,44.75
2017-12-08T05:14:27.543Z,44.66
2017-12-08T05:16:54.340Z,44.78
2017-12-08T05:19:20.143Z,44.83
2017-12-08T05:21:45.919Z,44.63
2017-12-08T05:24:11.744Z,44.56
2017-12-08T05:26:37.521Z,44.80
2017-12-08T05:29:03.287Z,44.90
2017-12-08T05:31:29.048Z,44.66
2017-12-08T05:33:54.847Z,44.68
2017-12-08T05:36:20.609Z,44.53
2017-12-08T05:38:47.455Z,44.66
2017-12-08T05:41:13.227Z,44.58
2017-12-08T05:43:38.991Z,44.54
2017-12-08T05:46:04.768Z,44.60
2017-12-08T05:48:30.534Z,44.83
2017-12-08T05:50:56.306Z,44.71
2017-12-08T05:53:22.087Z,44.78
2017-12-08T05:55:47.863Z,44.55
2017-12-08T05:58:13.639Z,44.59
2017-12-08T06:00:39.464Z,44.69
2017-12-08T06:03:05.241Z,44.59
2017-12-08T06:05:31.008Z,44.66
2017-12-08T06:07:56.780Z,44.64
2017-12-08T06:10:22.546Z,44.52
2017-12-08T06:12:49.234Z,46.12
2017-12-08T06:15:15.003Z,45.69
2017-12-08T06:17:40.793Z,45.32
2017-12-08T06:20:06.563Z,45.45
2017-12-08T06:22:33.368Z,46.12
2017-12-08T06:25:00.078Z,45.71
2017-12-08T06:27:25.853Z,45.45
2017-12-08T06:29:51.615Z,45.52
2017-12-08T06:32:17.388Z,45.76
2017-12-08T06:34:43.172Z,45.04
2017-12-08T06:37:08.983Z,46.60
2017-12-08T06:39:34.743Z,46.18
2017-12-08T06:42:00.523Z,46.29
2017-12-08T06:44:26.288Z,46.23
2017-12-08T06:46:52.071Z,46.44
2017-12-08T06:49:18.790Z,46.67
2017-12-08T06:51:44.554Z,46.37
2017-12-08T06:54:10.453Z,47.03
2017-12-08T06:56:36.595Z,46.57
2017-12-08T06:59:02.408Z,46.31
2017-12-08T07:01:28.367Z,47.68
2017-12-08T07:03:54.987Z,46.21
2017-12-08T07:06:20.761Z,46.54
2017-12-08T07:08:47.589Z,47.44
2017-12-08T07:12:16.495Z,49.27
2017-12-08T07:14:42.268Z,47.21
2017-12-08T07:17:08.910Z,47.79
2017-12-08T07:19:34.656Z,45.81
2017-12-08T07:22:01.543Z,45.47
2017-12-08T07:24:27.307Z,44.68
2017-12-08T07:26:53.247Z,44.50
2017-12-08T07:29:19.859Z,46.05
2017-12-08T07:31:46.600Z,46.18
2017-12-08T07:34:12.379Z,46.23
2017-12-08T07:36:39.079Z,45.44
2017-12-08T07:39:04.896Z,46.28
2017-12-08T07:41:30.674Z,45.54
2017-12-08T07:43:56.449Z,45.37
2017-12-08T07:46:22.355Z,45.11
2017-12-08T07:48:48.120Z,45.51
2017-12-08T07:51:13.908Z,45.37
2017-12-08T07:53:40.636Z,45.34
2017-12-08T07:56:06.411Z,45.25
2017-12-08T07:58:32.175Z,45.41
2017-12-08T08:00:57.955Z,44.87
2017-12-08T08:03:24.635Z,45.22
2017-12-08T08:05:51.391Z,44.12
2017-12-08T08:08:17.191Z,43.73
2017-12-08T08:10:42.992Z,44.25
2017-12-08T08:13:08.772Z,43.37
2017-12-08T08:15:34.592Z,43.19
2017-12-08T08:18:00.376Z,43.94
2017-12-08T08:20:26.148Z,42.86
2017-12-08T08:22:52.056Z,43.71
2017-12-08T08:25:17.835Z,43.25
2017-12-08T08:27:43.610Z,43.02
2017-12-08T08:30:09.387Z,42.64
2017-12-08T08:32:35.202Z,43.24
2017-12-08T08:35:00.968Z,42.88
2017-12-08T08:37:26.744Z,43.02
2017-12-08T08:39:52.524Z,43.03
2017-12-08T08:42:18.305Z,42.82
2017-12-08T08:44:44.080Z,42.83
2017-12-08T08:47:09.865Z,43.51
2017-12-08T08:49:35.644Z,45.30
2017-12-08T08:52:01.492Z,44.88
2017-12-08T08:54:27.274Z,42.37
2017-12-08T08:56:53.096Z,42.40
2017-12-08T08:59:18.876Z,41.84
2017-12-08T09:01:44.664Z,43.24
2017-12-08T09:04:10.439Z,42.98
2017-12-08T09:06:36.849Z,42.85
2017-12-08T09:09:03.680Z,42.64
2017-12-08T09:11:29.471Z,43.07
2017-12-08T09:13:55.356Z,42.98
2017-12-08T09:16:21.136Z,43.09
2017-12-08T09:18:46.912Z,42.81
2017-12-08T09:21:12.742Z,42.74
2017-12-08T09:23:38.631Z,43.04
2017-12-08T09:26:04.415Z,43.05
2017-12-08T09:28:30.200Z,43.09
2017-12-08T09:30:56.135Z,43.51
2017-12-08T09:33:22.788Z,43.36
2017-12-08T09:35:48.555Z,43.58
2017-12-08T09:38:14.590Z,43.22
2017-12-08T09:40:40.394Z,43.22
2017-12-08T09:43:06.216Z,43.27
2017-12-08T09:45:32.037Z,42.99
2017-12-08T09:47:57.831Z,43.18
2017-12-08T09:50:23.623Z,43.15
2017-12-08T09:52:49.396Z,42.94
2017-12-08T09:55:15.367Z,43.31
2017-12-08T09:57:42.119Z,43.36
2017-12-08T10:00:07.906Z,43.26
2017-12-08T10:02:33.810Z,43.88
2017-12-08T10:05:00.452Z,43.29
2017-12-08T10:07:26.351Z,43.20
2017-12-08T10:09:52.171Z,43.29
2017-12-08T10:12:18.104Z,43.43
2017-12-08T10:14:45.129Z,43.04
2017-12-08T10:17:11.134Z,42.99
2017-12-08T10:19:37.221Z,43.26
2017-12-08T10:22:03.273Z,43.22
2017-12-08T10:24:29.170Z,42.88
2017-12-08T10:26:55.719Z,43.04
2017-12-08T10:29:21.619Z,43.46
2017-12-08T10:31:47.561Z,43.34
2017-12-08T10:34:13.543Z,43.26
2017-12-08T10:36:39.400Z,43.02
2017-12-08T10:39:05.192Z,43.47
2017-12-08T10:41:31.008Z,43.08
2017-12-08T10:43:56.846Z,43.54
2017-12-08T10:46:22.656Z,43.19
2017-12-08T10:48:48.439Z,43.04
2017-12-08T10:51:14.297Z,42.89
2017-12-08T10:53:40.099Z,42.77
2017-12-08T10:56:05.871Z,42.79
2017-12-08T10:58:31.800Z,42.99
2017-12-08T11:00:57.586Z,42.61
2017-12-08T11:03:23.387Z,42.67
2017-12-08T11:05:49.147Z,43.60
2017-12-08T11:08:15.203Z,43.40
2017-12-08T11:10:41.011Z,43.30
2017-12-08T11:13:07.804Z,43.29
2017-12-08T11:15:33.634Z,42.89
2017-12-08T11:17:59.590Z,42.82
2017-12-08T11:20:25.562Z,42.53
2017-12-08T11:22:51.643Z,42.55
2017-12-08T11:25:17.457Z,42.75
2017-12-08T11:27:43.605Z,42.66
2017-12-08T11:30:09.605Z,42.82
2017-12-08T11:32:35.473Z,43.07
2017-12-08T11:35:01.331Z,43.02
2017-12-08T11:37:27.217Z,44.00
2017-12-08T11:39:53.171Z,42.87
2017-12-08T11:42:19.063Z,43.59
2017-12-08T11:44:44.891Z,42.84
2017-12-08T11:47:11.536Z,42.97
2017-12-08T11:49:37.303Z,42.45
2017-12-08T11:52:03.063Z,42.56
2017-12-08T11:54:28.840Z,42.95
2017-12-08T11:56:54.609Z,42.66
2017-12-08T11:59:21.635Z,42.72
2017-12-08T12:01:47.484Z,43.00
2017-12-08T12:04:13.281Z,42.98
2017-12-08T12:06:39.136Z,42.71
2017-12-08T12:09:05.024Z,42.60
2017-12-08T12:11:30.976Z,42.38
2017-12-08T12:13:56.874Z,42.17
2017-12-08T12:16:39.971Z,42.45
2017-12-08T12:19:05.779Z,42.91
2017-12-08T12:21:32.652Z,42.52
2017-12-08T12:24:00.684Z,42.41
2017-12-08T12:26:27.313Z,43.15
2017-12-08T12:28:53.101Z,42.59
2017-12-08T12:31:20.990Z,42.42
2017-12-08T12:33:47.043Z,42.31
2017-12-08T12:36:13.252Z,42.77
2017-12-08T12:38:39.944Z,42.17
2017-12-08T12:41:05.748Z,42.05
2017-12-08T12:43:31.537Z,42.79
2017-12-08T12:45:58.356Z,42.16
2017-12-08T12:48:25.161Z,42.47
2017-12-08T12:50:52.641Z,42.20
2017-12-08T12:53:18.626Z,42.17
2017-12-08T12:55:44.475Z,42.35
2017-12-08T12:58:10.296Z,42.06
2017-12-08T13:00:37.676Z,42.02
2017-12-08T13:03:03.500Z,42.29
2017-12-08T13:05:29.267Z,42.36
2017-12-08T13:07:55.980Z,42.14
2017-12-08T13:10:21.855Z,42.76
2017-12-08T13:12:47.668Z,42.45
2017-12-08T13:15:13.531Z,41.93
2017-12-08T13:17:39.412Z,41.87
2017-12-08T13:20:05.180Z,41.79
2017-12-08T13:22:31.055Z,42.05
2017-12-08T13:24:57.759Z,41.74
2017-12-08T13:27:23.534Z,42.35
2017-12-08T13:29:49.300Z,41.59
2017-12-08T13:32:15.153Z,41.74
2017-12-08T13:34:40.963Z,42.48
2017-12-08T13:37:06.827Z,41.88
2017-12-08T13:39:32.592Z,41.67
2017-12-08T13:41:58.431Z,41.91
2017-12-08T13:44:24.200Z,42.50
2017-12-08T13:46:49.971Z,42.41
2017-12-08T13:49:15.747Z,41.81
2017-12-08T13:51:41.569Z,41.93
2017-12-08T13:54:13.573Z,41.65
2017-12-08T13:56:45.518Z,42.09
2017-12-08T13:59:11.292Z,42.41
2017-12-08T14:01:37.065Z,42.16
2017-12-08T14:04:02.852Z,41.72
2017-12-08T14:06:28.607Z,41.96
2017-12-08T14:08:54.374Z,42.55
2017-12-08T14:11:20.148Z,41.78
2017-12-08T14:13:47.035Z,41.11
2017-12-08T14:16:12.911Z,40.63
2017-12-08T14:18:38.759Z,40.73
2017-12-08T14:21:04.554Z,41.53
2017-12-08T14:23:30.358Z,42.21
2017-12-08T14:25:56.135Z,42.73
2017-12-08T14:28:21.906Z,42.61
2017-12-08T14:30:47.703Z,41.87
2017-12-08T14:33:13.503Z,41.89
2017-12-08T14:35:39.267Z,42.23
2017-12-08T14:38:05.068Z,42.32
2017-12-08T14:40:30.843Z,41.96
2017-12-08T14:42:56.607Z,42.12
2017-12-08T14:45:22.415Z,41.49
2017-12-08T14:47:48.220Z,42.09
2017-12-08T14:50:13.980Z,43.08
2017-12-08T14:52:39.744Z,42.38
2017-12-08T14:55:05.524Z,41.40
2017-12-08T14:57:31.305Z,41.33
2017-12-08T14:59:57.200Z,41.39
2017-12-08T15:02:23.207Z,41.43
2017-12-08T15:04:49.126Z,42.11
2017-12-08T15:07:16.089Z,42.09
2017-12-08T15:09:43.524Z,42.37
2017-12-08T15:12:13.931Z,43.20
2017-12-08T15:14:39.854Z,42.79
2017-12-08T15:17:05.779Z,42.09
2017-12-08T15:19:31.579Z,41.70
2017-12-08T15:21:57.340Z,42.69
2017-12-08T15:24:23.147Z,42.18
2017-12-08T15:26:49.103Z,42.76
2017-12-08T15:29:14.875Z,42.80
2017-12-08T15:31:40.683Z,41.78
2017-12-08T15:34:06.465Z,41.72
2017-12-08T15:36:32.416Z,42.98
2017-12-08T15:38:58.191Z,42.48
2017-12-08T15:41:24.755Z,42.87
2017-12-08T15:43:50.720Z,42.03
2017-12-08T15:46:16.747Z,43.20
2017-12-08T15:48:42.552Z,40.94
2017-12-08T15:51:08.547Z,40.38
2017-12-08T15:53:35.283Z,38.79
2017-12-08T15:56:01.052Z,39.53
2017-12-08T15:58:26.825Z,42.32
2017-12-08T16:00:53.655Z,40.41
2017-12-08T16:03:19.427Z,40.14
2017-12-08T16:05:46.235Z,43.02
2017-12-08T16:08:12.999Z,42.93
2017-12-08T16:10:38.771Z,42.77
2017-12-08T16:13:04.547Z,43.23
2017-12-08T16:15:30.352Z,40.30
2017-12-08T16:17:56.299Z,42.78
2017-12-08T16:20:22.096Z,42.15
2017-12-08T16:22:47.940Z,41.35
2017-12-08T16:25:13.712Z,41.93
2017-12-08T16:27:39.599Z,42.79
2017-12-08T16:30:05.372Z,43.12
2017-12-08T16:32:31.142Z,42.25
2017-12-08T16:34:57.963Z,42.69
2017-12-08T16:37:23.874Z,42.71
2017-12-08T16:39:49.652Z,41.22
2017-12-08T16:42:16.434Z,42.06
2017-12-08T16:44:42.206Z,43.99
2017-12-08T16:47:08.017Z,43.58
2017-12-08T16:49:33.793Z,42.84
2017-12-08T16:52:00.472Z,42.00
2017-12-08T16:54:26.243Z,44.29
2017-12-08T16:56:52.017Z,43.31
2017-12-08T16:59:17.793Z,44.27
2017-12-08T17:01:43.712Z,43.86
2017-12-08T17:04:09.482Z,42.62
2017-12-08T17:06:35.252Z,42.11
2017-12-08T17:09:01.032Z,43.84
2017-12-08T17:11:26.801Z,44.41
2017-12-08T17:13:52.741Z,43.12
2017-12-08T17:16:18.631Z,42.99
2017-12-08T17:18:44.554Z,42.55
2017-12-08T17:21:10.351Z,41.85
2017-12-08T17:23:36.195Z,43.29
2017-12-08T17:26:01.979Z,42.23
2017-12-08T17:28:27.768Z,41.95
2017-12-08T17:30:53.665Z,42.35
2017-12-08T17:33:19.432Z,42.49
2017-12-08T17:35:45.210Z,42.27
2017-12-08T17:38:11.135Z,41.86
2017-12-08T17:40:37.852Z,41.88
2017-12-08T17:43:03.666Z,42.62
2017-12-08T17:45:29.455Z,42.40
2017-12-08T17:47:55.227Z,41.86
2017-12-08T17:50:21.075Z,42.26
2017-12-08T17:52:46.852Z,42.32
2017-12-08T17:55:12.624Z,43.06
2017-12-08T17:57:38.454Z,43.39
2017-12-08T18:00:04.264Z,43.03
2017-12-08T18:02:30.067Z,43.29
2017-12-08T18:04:55.835Z,43.64
2017-12-08T18:07:21.635Z,44.00
2017-12-08T18:09:47.483Z,42.89
2017-12-08T18:12:13.365Z,43.93
2017-12-08T18:14:39.176Z,43.51
2017-12-08T18:17:04.996Z,45.56
2017-12-08T18:19:30.973Z,44.82
2017-12-08T18:21:56.815Z,42.78
2017-12-08T18:24:22.591Z,43.64
2017-12-08T18:26:48.640Z,44.60
2017-12-08T18:29:14.415Z,44.02
2017-12-08T18:31:40.247Z,43.92
2017-12-08T18:34:06.195Z,44.27
2017-12-08T18:36:32.014Z,44.18
2017-12-08T18:38:57.801Z,43.67
2017-12-08T18:41:23.593Z,44.22
2017-12-08T18:43:49.524Z,44.46
2017-12-08T18:46:15.295Z,43.96
2017-12-08T18:48:41.080Z,44.35
2017-12-08T18:51:06.960Z,43.84
2017-12-08T18:53:32.729Z,44.08
2017-12-08T18:55:58.678Z,44.49
2017-12-08T18:58:24.485Z,44.22
2017-12-08T19:00:50.287Z,44.42
2017-12-08T19:03:17.007Z,43.90
2017-12-08T19:05:43.742Z,43.79
2017-12-08T19:08:10.497Z,43.40
2017-12-08T19:10:36.360Z,43.43
2017-12-08T19:13:02.184Z,43.07
2017-12-08T19:15:28.856Z,43.54
2017-12-08T19:17:55.628Z,44.17
2017-12-08T19:20:21.583Z,44.35
2017-12-08T19:22:47.368Z,43.61
2017-12-08T19:25:13.168Z,43.67
2017-12-08T19:27:39.056Z,45.11
2017-12-08T19:30:04.852Z,44.17
2017-12-08T19:32:30.657Z,43.07
2017-12-08T19:34:56.503Z,44.50
2017-12-08T19:37:22.279Z,44.10
2017-12-08T19:39:48.052Z,45.04
2017-12-08T19:42:13.871Z,44.87
2017-12-08T19:44:39.647Z,44.53
2017-12-08T19:47:05.419Z,43.75
2017-12-08T19:49:31.315Z,44.71
2017-12-08T19:51:57.087Z,44.33
2017-12-08T19:54:23.789Z,45.27
2017-12-08T19:56:50.479Z,44.02
2017-12-08T19:59:17.423Z,44.40
2017-12-08T20:01:43.223Z,44.08
2017-12-08T20:04:09.027Z,44.59
2017-12-08T20:06:34.799Z,44.53
2017-12-08T20:09:00.600Z,44.56
2017-12-08T20:11:26.372Z,45.39
2017-12-08T20:13:53.181Z,45.05
2017-12-08T20:16:18.959Z,44.55
2017-12-08T20:18:44.739Z,45.75
2017-12-08T20:21:10.520Z,44.72
2017-12-08T20:23:36.297Z,45.67
2017-12-08T20:26:02.083Z,45.32
2017-12-08T20:28:27.845Z,46.00
2017-12-08T20:30:53.618Z,44.78
2017-12-08T20:33:19.386Z,44.35
2017-12-08T20:35:45.150Z,45.66
2017-12-08T20:38:11.797Z,44.77
2017-12-08T20:40:37.563Z,44.91
2017-12-08T20:43:03.327Z,45.27
2017-12-08T20:45:29.100Z,44.22
2017-12-08T20:47:54.879Z,43.86
2017-12-08T20:50:20.656Z,45.63
2017-12-08T20:52:46.419Z,45.05
2017-12-08T20:55:12.361Z,43.59
2017-12-08T20:57:38.132Z,44.38
2017-12-08T21:00:03.933Z,44.56
2017-12-08T21:02:29.704Z,43.90
2017-12-08T21:04:55.479Z,44.62
2017-12-08T21:07:21.259Z,44.89
2017-12-08T21:09:47.034Z,44.56
2017-12-08T21:12:12.815Z,44.20
2017-12-08T21:14:38.620Z,44.13
2017-12-08T21:17:04.391Z,43.85
2017-12-08T21:19:30.163Z,44.64
2017-12-08T21:21:55.926Z,44.40
2017-12-08T21:24:21.871Z,44.21
2017-12-08T21:26:47.648Z,44.29
2017-12-08T21:29:13.423Z,45.27
2017-12-08T21:31:39.196Z,45.32
2017-12-08T21:34:04.960Z,44.08
2017-12-08T21:36:30.727Z,45.77
2017-12-08T21:38:56.501Z,44.75
2017-12-08T21:41:22.394Z,45.57
2017-12-08T21:43:48.209Z,44.73
2017-12-08T21:46:13.979Z,44.50
2017-12-08T21:48:39.758Z,45.92
2017-12-08T21:51:05.531Z,44.83
2017-12-08T21:53:31.331Z,45.21
2017-12-08T21:55:57.152Z,45.89
2017-12-08T21:58:22.947Z,45.14
2017-12-08T22:00:48.719Z,45.24
2017-12-08T22:03:14.523Z,45.78
2017-12-08T22:05:40.725Z,44.22
2017-12-08T22:08:06.499Z,45.78
2017-12-08T22:10:32.303Z,44.90
2017-12-08T22:12:58.104Z,44.53
2017-12-08T22:15:23.919Z,44.78
2017-12-08T22:17:49.793Z,45.64
2017-12-08T22:20:15.575Z,44.82
2017-12-08T22:22:41.344Z,45.42
2017-12-08T22:25:07.159Z,45.10
2017-12-08T22:27:32.984Z,45.29
2017-12-08T22:29:58.759Z,44.82
2017-12-08T22:37:43.648Z,45.26
2017-12-08T22:40:10.604Z,46.35
2017-12-08T22:42:36.380Z,45.70
2017-12-08T22:45:02.172Z,46.05
2017-12-08T22:47:28.129Z,44.93
2017-12-08T22:49:53.899Z,44.87
2017-12-08T22:52:19.862Z,44.67
2017-12-08T22:54:45.776Z,44.88
2017-12-08T22:57:11.747Z,45.19
2017-12-08T22:59:37.533Z,44.48
2017-12-08T23:02:04.145Z,44.98
2017-12-08T23:04:30.988Z,43.79
2017-12-08T23:06:56.848Z,43.96
2017-12-08T23:09:22.746Z,43.90
2017-12-08T23:11:48.525Z,44.51
2017-12-08T23:14:14.502Z,44.74
2017-12-08T23:16:40.280Z,44.77
2017-12-08T23:19:06.228Z,44.24
2017-12-08T23:21:31.995Z,44.69
2017-12-08T23:23:57.763Z,44.63
2017-12-08T23:26:23.532Z,44.51
2017-12-08T23:28:49.363Z,43.88
2017-12-08T23:31:15.119Z,44.33
2017-12-08T23:33:40.896Z,44.20
2017-12-08T23:36:07.635Z,44.93
2017-12-08T23:38:34.320Z,43.55
2017-12-08T23:41:00.092Z,43.71
2017-12-08T23:43:25.862Z,45.03
2017-12-08T23:45:51.775Z,44.23
2017-12-08T23:48:18.483Z,44.32
2017-12-08T23:50:44.257Z,44.79
2017-12-08T23:53:10.032Z,44.78
2017-12-08T23:55:36.639Z,44.45
2017-12-08T23:58:02.412Z,43.91
